Time;durP1;ratioP1;P1;durP2;ratioP2;P2;SDS_P1;SDS_P2;PMS_P1;PMS_P2;Temp;Humidity;BMP_temperature;BMP_pressure;BME280_temperature;BME280_humidity;BME280_pressure;Samples;Min_cycle;Max_cycle;Signal;HPM_P1;HPM_P2
2022/08/06 00:02:20;;;;;;;;;29.33;26.67;;;;;24.29;69.22;100859.12;110756;1257;18757;-54
2022/08/06 00:04:47;;;;;;;;;28.67;28.67;;;;;24.21;69.47;100861.86;110787;1257;22695;-56
2022/08/06 00:07:15;;;;;;;;;28.00;25.00;;;;;24.17;69.58;100868.98;110783;1258;18928;-52
2022/08/06 00:09:42;;;;;;;;;25.33;24.33;;;;;24.14;69.71;100874.83;110752;1257;19019;-61
2022/08/06 00:12:10;;;;;;;;;27.00;24.33;;;;;24.15;69.68;100873.19;110783;1257;20065;-56
2022/08/06 00:14:37;;;;;;;;;26.00;24.00;;;;;24.18;69.65;100874.73;110765;1258;18904;-57
2022/08/06 00:17:04;;;;;;;;;36.00;28.00;;;;;24.17;69.41;100873.30;110726;1258;18869;-54
2022/08/06 00:19:32;;;;;;;;;26.67;25.00;;;;;24.18;69.18;100869.89;110777;1258;19601;-52
2022/08/06 00:21:59;;;;;;;;;32.33;26.00;;;;;24.13;69.28;100870.80;110675;1256;19000;-54
2022/08/06 00:24:27;;;;;;;;;31.33;30.00;;;;;24.14;69.11;100875.91;110832;1256;18867;-52
2022/08/06 00:26:54;;;;;;;;;29.00;25.67;;;;;24.22;68.81;100872.48;110744;1257;19685;-55
2022/08/06 00:29:22;;;;;;;;;33.33;31.00;;;;;24.16;68.84;100868.94;110743;1257;23057;-52
2022/08/06 00:31:49;;;;;;;;;29.67;29.33;;;;;24.20;68.89;100875.02;110772;1257;21334;-56
2022/08/06 00:34:16;;;;;;;;;34.33;30.00;;;;;24.23;68.82;100875.27;110803;1257;19631;-54
2022/08/06 00:36:44;;;;;;;;;31.00;29.33;;;;;24.25;68.80;100868.01;110794;1258;18775;-54
2022/08/06 00:39:11;;;;;;;;;33.33;30.33;;;;;24.13;69.15;100872.06;110786;1257;18864;-57
2022/08/06 00:41:38;;;;;;;;;31.33;28.00;;;;;24.12;69.22;100871.02;110659;1258;19685;-53
2022/08/06 00:44:06;;;;;;;;;32.67;28.33;;;;;24.10;69.32;100875.54;110704;1257;22817;-54
2022/08/06 00:46:33;;;;;;;;;29.67;28.00;;;;;24.05;69.49;100876.67;110818;1257;18876;-57
2022/08/06 00:49:00;;;;;;;;;24.67;24.00;;;;;24.12;69.40;100873.78;110741;1258;19469;-53
2022/08/06 00:51:28;;;;;;;;;24.00;23.00;;;;;24.15;69.21;100879.33;110745;1257;18691;-54
2022/08/06 00:53:55;;;;;;;;;23.00;22.00;;;;;24.07;69.23;100886.12;110759;1257;18898;-54
2022/08/06 00:59:20;;;;;;;;;22.50;21.00;;;;;24.05;69.22;100885.64;110516;1258;19027;-55
2022/08/06 01:01:48;;;;;;;;;23.33;23.00;;;;;24.01;69.34;100892.93;110730;1258;18866;-54
2022/08/06 01:04:15;;;;;;;;;22.00;22.00;;;;;23.93;69.28;100900.67;110750;1257;21068;-56
2022/08/06 01:06:42;;;;;;;;;20.00;20.00;;;;;23.90;69.39;100906.79;110687;1257;23391;-54
2022/08/06 01:09:10;;;;;;;;;23.00;22.00;;;;;23.85;69.48;100917.85;110668;1257;18932;-54
2022/08/06 01:11:37;;;;;;;;;24.33;20.00;;;;;23.72;69.80;100918.29;110657;1258;19525;-56
2022/08/06 01:14:04;;;;;;;;;19.67;19.00;;;;;23.62;70.03;100923.02;110546;1257;18715;-58
2022/08/06 01:16:32;;;;;;;;;20.50;18.00;;;;;23.56;70.16;100928.08;110633;1258;18965;-56
2022/08/06 01:18:59;;;;;;;;;21.50;19.00;;;;;23.55;70.22;100932.80;110706;1258;19483;-54
2022/08/06 01:21:27;;;;;;;;;18.67;18.67;;;;;23.69;69.56;100933.25;110716;1258;19093;-55
2022/08/06 01:23:54;;;;;;;;;22.50;21.50;;;;;23.60;69.49;100937.29;110719;1258;19096;-54
2022/08/06 01:26:46;;;;;;;;;18.00;18.00;;;;;23.52;69.66;100935.91;110698;1256;19510;-54
2022/08/06 01:29:37;;;;;;;;;22.00;21.33;;;;;23.45;69.86;100941.88;110633;1256;19215;-53
2022/08/06 01:32:29;;;;;;;;;17.00;17.00;;;;;23.59;69.35;100942.19;110670;1256;18860;-53
2022/08/06 01:35:20;;;;;;;;;17.00;16.33;;;;;23.76;68.55;100941.03;110629;1256;19621;-53
2022/08/06 01:38:13;;;;;;;;;17.00;17.00;;;;;23.76;68.19;100930.21;110715;1258;18772;-53
2022/08/06 05:13:18;;;;;;;;;9.00;9.00;;;;;22.40;63.43;101266.02;110656;1256;19473;-57
2022/08/06 05:15:45;;;;;;;;;9.00;9.00;;;;;22.26;64.08;101265.31;110480;1256;19330;-55
2022/08/06 05:18:13;;;;;;;;;16.00;12.00;;;;;22.26;64.36;101275.85;110520;1256;19750;-56
2022/08/06 05:20:40;;;;;;;;;19.00;16.00;;;;;22.21;64.84;101276.74;110579;1256;19526;-55
2022/08/06 05:23:07;;;;;;;;;10.33;10.33;;;;;22.05;65.73;101276.02;110651;1256;19097;-54
2022/08/06 05:25:35;;;;;;;;;7.00;7.00;;;;;21.81;66.37;101277.41;110777;1258;19127;-55
2022/08/06 05:28:02;;;;;;;;;6.00;6.00;;;;;21.83;65.80;101285.02;110776;1256;19807;-59
2022/08/06 05:30:30;;;;;;;;;9.00;9.00;;;;;21.71;65.35;101289.23;110796;1257;18563;-56
2022/08/06 05:32:58;;;;;;;;;6.50;6.50;;;;;21.75;64.88;101293.70;110725;1256;19109;-57
2022/08/06 05:35:26;;;;;;;;;10.00;10.00;;;;;21.65;64.46;101285.92;110624;1256;22143;-56
2022/08/06 05:37:53;;;;;;;;;10.00;9.00;;;;;21.46;64.62;101284.72;110727;1256;21856;-55
2022/08/06 05:40:20;;;;;;;;;6.00;6.00;;;;;21.46;64.16;101281.84;110644;1255;18819;-55
2022/08/06 05:42:48;;;;;;;;;6.00;6.00;;;;;21.63;63.53;101290.30;111295;1256;19527;-56
2022/08/06 05:45:18;;;;;;;;;5.67;5.67;;;;;21.65;63.08;101297.59;110762;1256;18390;-53
2022/08/06 05:47:45;;;;;;;;;6.00;6.00;;;;;21.61;62.96;101297.45;110753;1256;18716;-57
2022/08/06 05:50:13;;;;;;;;;10.00;9.00;;;;;21.66;62.63;101290.70;110730;1255;19402;-51
2022/08/06 05:52:40;;;;;;;;;7.00;6.00;;;;;21.71;62.23;101293.11;110830;1256;18446;-55
2022/08/06 05:55:07;;;;;;;;;6.00;6.00;;;;;21.86;62.01;101290.67;110786;1256;18723;-55
2022/08/06 05:57:35;;;;;;;;;7.67;7.67;;;;;22.15;61.20;101289.61;110816;1256;19677;-54
2022/08/06 06:00:03;;;;;;;;;7.00;7.00;;;;;22.44;60.78;101287.95;110791;1256;18426;-54
2022/08/06 06:02:30;;;;;;;;;5.00;5.00;;;;;22.89;59.84;101288.42;110673;1256;21708;-55
2022/08/06 06:04:57;;;;;;;;;5.00;5.00;;;;;23.31;58.98;101282.10;110804;1255;19566;-53
2022/08/06 06:07:25;;;;;;;;;5.00;5.00;;;;;23.59;58.08;101278.56;110551;1256;18606;-54
2022/08/06 06:09:52;;;;;;;;;7.00;7.00;;;;;23.82;57.32;101282.73;110750;1256;23065;-55
2022/08/06 06:12:20;;;;;;;;;6.00;6.00;;;;;24.03;56.81;101284.09;110803;1256;19542;-55
2022/08/06 06:14:48;;;;;;;;;3.00;3.00;;;;;24.20;56.62;101279.11;110736;1256;18403;-55
2022/08/06 06:17:15;;;;;;;;;5.00;5.00;;;;;24.34;56.17;101281.20;110810;1256;20294;-54
2022/08/06 06:19:43;;;;;;;;;3.00;3.00;;;;;24.45;56.01;101284.45;110838;1256;19544;-54
2022/08/06 06:22:10;;;;;;;;;7.00;6.33;;;;;24.55;55.69;101284.85;110762;1255;18545;-57
2022/08/06 06:24:38;;;;;;;;;6.33;4.33;;;;;24.64;55.56;101275.14;110711;1256;18908;-53
2022/08/06 06:27:05;;;;;;;;;4.00;4.00;;;;;24.53;55.21;101271.02;110680;1256;19684;-55
2022/08/06 06:29:33;;;;;;;;;4.00;4.00;;;;;24.10;55.17;101274.45;110698;1256;18494;-54
2022/08/06 06:32:01;;;;;;;;;4.00;4.00;;;;;23.75;55.52;101265.55;110688;1256;18671;-58
2022/08/06 06:34:28;;;;;;;;;4.33;4.33;;;;;23.59;55.48;101272.33;110864;1256;19553;-55
2022/08/06 06:36:56;;;;;;;;;4.00;4.00;;;;;23.46;55.31;101281.21;110730;1256;22853;-54
2022/08/06 06:39:23;;;;;;;;;5.00;5.00;;;;;23.46;55.34;101284.86;110791;1256;18707;-56
2022/08/06 06:41:51;;;;;;;;;5.00;5.00;;;;;23.53;55.03;101289.76;110650;1256;19535;-55
2022/08/06 06:44:20;;;;;;;;;5.50;5.00;;;;;23.60;54.91;101291.75;110772;1256;18418;-56
2022/08/06 06:46:47;;;;;;;;;3.00;3.00;;;;;23.48;54.74;101293.16;110797;1256;22747;-56
2022/08/06 06:49:15;;;;;;;;;7.00;6.00;;;;;23.48;54.84;101288.44;110708;1256;23390;-56
2022/08/06 06:51:42;;;;;;;;;3.00;3.00;;;;;23.44;54.69;101291.68;110785;1256;18443;-54
2022/08/06 06:54:10;;;;;;;;;5.00;5.00;;;;;23.48;54.39;101291.94;110731;1256;18750;-55
2022/08/06 06:56:37;;;;;;;;;3.00;3.00;;;;;23.77;54.22;101293.63;110690;1256;19857;-53
2022/08/06 06:59:05;;;;;;;;;4.00;3.00;;;;;24.08;53.98;101296.43;110793;1255;18461;-55
2022/08/06 07:01:32;;;;;;;;;3.50;3.50;;;;;24.33;53.38;101300.68;110709;1255;18761;-54
2022/08/06 07:03:59;;;;;;;;;4.00;4.00;;;;;24.51;52.84;101308.18;110684;1256;20818;-52
2022/08/06 07:06:27;;;;;;;;;5.33;5.33;;;;;24.66;52.62;101312.88;110752;1256;18423;-54
2022/08/06 07:08:54;;;;;;;;;3.50;3.00;;;;;24.78;52.09;101314.70;110712;1256;18919;-54
2022/08/06 07:11:22;;;;;;;;;3.00;3.00;;;;;24.85;51.84;101317.20;110790;1256;19656;-54
2022/08/06 07:13:49;;;;;;;;;4.00;4.00;;;;;24.92;51.79;101326.34;110780;1256;18505;-53
2022/08/06 07:16:17;;;;;;;;;3.67;3.67;;;;;24.99;51.71;101332.87;110779;1255;18776;-55
2022/08/06 07:18:44;;;;;;;;;3.00;3.00;;;;;25.04;51.26;101337.65;110743;1256;19831;-54
2022/08/06 07:21:12;;;;;;;;;3.00;3.00;;;;;24.81;50.32;101341.77;110732;1256;18530;-57
2022/08/06 07:23:39;;;;;;;;;6.00;3.00;;;;;24.41;50.40;101350.35;110813;1256;19410;-56
2022/08/06 07:26:07;;;;;;;;;5.33;4.67;;;;;24.23;50.19;101337.64;110763;1255;19534;-55
2022/08/06 07:28:34;;;;;;;;;3.00;3.00;;;;;24.27;50.25;101332.79;110821;1256;22230;-56
2022/08/06 07:31:02;;;;;;;;;4.00;4.00;;;;;24.49;50.39;101329.03;110763;1256;18738;-54
2022/08/06 07:33:29;;;;;;;;;3.50;3.50;;;;;24.69;50.00;101345.60;110760;1256;19830;-52
2022/08/06 07:35:56;;;;;;;;;3.00;3.00;;;;;24.84;49.74;101356.75;110740;1256;18494;-54
2022/08/06 07:38:24;;;;;;;;;3.00;3.00;;;;;24.94;49.45;101358.41;110794;1256;21348;-57
2022/08/06 07:40:51;;;;;;;;;3.00;3.00;;;;;25.01;48.93;101356.95;110808;1256;19471;-56
2022/08/06 07:43:19;;;;;;;;;3.00;3.00;;;;;25.05;48.68;101364.60;110753;1256;18476;-54
2022/08/06 07:45:46;;;;;;;;;3.33;3.33;;;;;25.09;48.63;101361.89;110784;1255;22775;-54
2022/08/06 07:48:14;;;;;;;;;3.00;3.00;;;;;25.14;48.52;101362.08;110836;1256;21167;-58
2022/08/06 07:50:42;;;;;;;;;4.00;4.00;;;;;25.11;48.51;101387.58;110628;1255;22312;-52
2022/08/06 07:53:09;;;;;;;;;4.67;4.00;;;;;24.80;49.12;101390.17;110675;1256;18768;-57
2022/08/06 07:55:37;;;;;;;;;6.00;4.00;;;;;24.54;49.44;101393.28;110833;1256;19535;-52
2022/08/06 07:58:04;;;;;;;;;4.00;4.00;;;;;24.43;49.84;101407.84;110822;1255;18490;-56
2022/08/06 08:00:32;;;;;;;;;4.00;4.00;;;;;23.79;50.79;101402.33;110743;1256;18976;-55
2022/08/06 08:08:18;;;;;;;;;4.00;4.00;;;;;24.12;51.74;101416.05;110713;1258;18800;-54
2022/08/06 08:10:46;;;;;;;;;4.00;4.00;;;;;24.44;51.34;101427.98;110632;1258;19537;-58
2022/08/06 08:13:13;;;;;;;;;6.00;6.00;;;;;24.68;50.99;101418.77;110683;1258;18475;-55
2022/08/06 08:15:40;;;;;;;;;3.00;3.00;;;;;24.85;50.78;101424.30;110739;1258;19652;-54
2022/08/06 08:18:08;;;;;;;;;6.00;6.00;;;;;24.93;50.30;101424.55;110743;1258;19464;-57
2022/08/06 08:20:36;;;;;;;;;3.00;3.00;;;;;24.97;50.13;101433.93;110445;1260;22434;-57
2022/08/06 08:23:04;;;;;;;;;6.00;6.00;;;;;25.02;50.11;101440.09;110828;1258;18750;-53
2022/08/06 08:25:31;;;;;;;;;5.33;4.00;;;;;25.03;49.82;101443.20;110780;1258;19608;-55
2022/08/06 08:27:59;;;;;;;;;4.67;4.00;;;;;25.07;50.24;101448.58;110764;1258;18571;-55
2022/08/06 08:30:26;;;;;;;;;4.00;4.00;;;;;25.11;50.26;101458.98;110762;1258;18779;-56
2022/08/06 08:32:54;;;;;;;;;7.67;6.00;;;;;25.13;49.91;101461.66;110408;1260;19501;-53
2022/08/06 08:35:21;;;;;;;;;6.00;6.00;;;;;25.13;49.58;101463.42;110643;1258;18427;-55
2022/08/06 08:37:49;;;;;;;;;4.00;4.00;;;;;25.12;49.46;101468.35;110507;1260;18779;-53
2022/08/06 08:40:16;;;;;;;;;4.00;4.00;;;;;25.12;49.77;101472.36;110475;1259;19600;-54
2022/08/06 08:42:44;;;;;;;;;4.00;4.00;;;;;25.13;49.48;101473.73;110743;1258;20511;-55
2022/08/06 08:45:11;;;;;;;;;5.33;4.67;;;;;25.13;49.33;101477.66;110556;1259;19274;-56
2022/08/06 08:47:39;;;;;;;;;6.00;6.00;;;;;25.14;49.24;101479.59;110725;1258;19555;-53
2022/08/06 08:50:06;;;;;;;;;6.00;6.00;;;;;24.77;49.58;101485.16;110874;1258;18737;-54
2022/08/06 08:52:34;;;;;;;;;8.00;7.00;;;;;24.13;50.66;101484.45;110724;1258;18881;-54
2022/08/06 08:55:01;;;;;;;;;8.00;8.00;;;;;23.80;51.70;101488.74;110795;1258;19520;-58
2022/08/06 08:57:28;;;;;;;;;6.00;6.00;;;;;23.48;52.72;101491.63;110590;1258;20010;-54
2022/08/06 08:59:56;;;;;;;;;10.00;8.67;;;;;23.63;52.50;101493.04;110639;1258;18914;-58
2022/08/06 09:02:23;;;;;;;;;12.00;11.33;;;;;23.86;52.08;101493.85;110694;1259;19479;-59
2022/08/06 09:04:51;;;;;;;;;10.67;8.67;;;;;23.98;51.81;101493.81;110730;1258;18770;-52
2022/08/06 09:07:18;;;;;;;;;8.50;8.50;;;;;24.04;51.73;101494.30;110660;1258;18767;-56
2022/08/06 09:09:47;;;;;;;;;7.00;7.00;;;;;24.04;51.37;101494.95;110550;1258;19520;-53
2022/08/06 09:12:14;;;;;;;;;8.00;7.33;;;;;24.06;51.49;101495.10;110609;1258;18512;-52
2022/08/06 09:14:43;;;;;;;;;7.00;7.00;;;;;24.05;51.40;101493.64;110402;1258;19057;-53
2022/08/06 09:17:10;;;;;;;;;7.00;6.33;;;;;23.99;51.20;101498.13;110704;1258;22631;-53
2022/08/06 09:19:38;;;;;;;;;7.33;6.67;;;;;24.05;51.04;101498.50;110656;1258;18327;-55
2022/08/06 09:22:05;;;;;;;;;6.67;6.00;;;;;24.10;50.63;101507.75;110598;1258;18800;-55
2022/08/06 09:24:33;;;;;;;;;7.00;7.00;;;;;24.15;50.56;101509.06;110741;1258;19593;-54
2022/08/06 09:27:00;;;;;;;;;6.00;6.00;;;;;24.11;50.45;101508.93;110590;1258;18736;-54
2022/08/06 09:29:28;;;;;;;;;6.00;6.00;;;;;24.06;50.41;101512.98;110472;1260;18776;-53
2022/08/06 09:31:55;;;;;;;;;6.00;6.00;;;;;24.11;50.46;101516.77;110822;1258;19413;-54
2022/08/06 09:34:23;;;;;;;;;7.00;6.00;;;;;24.15;50.34;101514.88;110806;1258;19746;-54
2022/08/06 09:36:51;;;;;;;;;4.00;4.00;;;;;24.16;50.57;101520.52;110455;1260;18715;-54
2022/08/06 09:39:19;;;;;;;;;6.00;6.00;;;;;24.18;50.48;101521.67;110794;1258;19658;-58
2022/08/06 09:41:47;;;;;;;;;6.00;6.00;;;;;24.25;50.45;101526.33;110574;1259;18442;-55
2022/08/06 09:44:14;;;;;;;;;7.00;6.00;;;;;24.27;50.39;101526.81;110463;1260;18795;-54
2022/08/06 09:46:42;;;;;;;;;6.00;6.00;;;;;24.30;50.42;101529.39;110702;1258;19504;-53
2022/08/06 09:49:10;;;;;;;;;6.00;6.00;;;;;24.30;50.27;101530.64;110718;1258;18390;-53
2022/08/06 09:51:37;;;;;;;;;8.00;7.33;;;;;24.24;50.33;101536.50;110581;1258;22623;-52
2022/08/06 09:54:05;;;;;;;;;8.33;8.00;;;;;24.20;50.34;101529.08;110729;1258;21734;-53
2022/08/06 09:56:32;;;;;;;;;8.00;7.50;;;;;24.20;50.59;101533.05;110772;1258;18375;-52
2022/08/06 09:59:00;;;;;;;;;8.00;8.00;;;;;24.23;50.41;101535.21;110842;1258;18647;-53
2022/08/06 10:01:32;;;;;;;;;7.00;7.00;;;;;24.30;50.46;101535.42;110609;1258;19476;-55
2022/08/06 10:04:00;;;;;;;;;8.00;7.67;;;;;24.33;50.32;101533.60;110436;1260;18548;-55
2022/08/06 10:06:27;;;;;;;;;7.00;7.00;;;;;24.33;50.54;101529.33;110759;1258;20327;-53
2022/08/06 10:08:55;;;;;;;;;11.33;9.67;;;;;24.33;50.47;101531.23;110763;1258;19529;-54
2022/08/06 10:11:22;;;;;;;;;9.00;8.00;;;;;24.33;50.59;101533.91;110743;1258;18405;-56
2022/08/06 10:13:49;;;;;;;;;8.00;7.67;;;;;24.30;50.54;101534.30;110501;1260;20438;-53
2022/08/06 10:16:17;;;;;;;;;9.00;8.67;;;;;24.29;50.62;101536.05;110564;1259;19553;-57
2022/08/06 10:18:44;;;;;;;;;7.00;7.00;;;;;24.33;50.43;101535.28;110607;1258;20864;-56
2022/08/06 10:21:11;;;;;;;;;8.00;7.00;;;;;24.34;50.41;101543.33;110594;1258;18835;-55
2022/08/06 10:23:39;;;;;;;;;6.00;6.00;;;;;24.35;50.17;101541.09;110530;1259;19468;-56
2022/08/06 10:26:07;;;;;;;;;7.00;7.00;;;;;24.41;49.96;101541.74;110809;1258;19267;-53
2022/08/06 10:28:34;;;;;;;;;8.67;8.33;;;;;24.52;49.70;101537.36;110758;1258;18828;-53
2022/08/06 10:31:02;;;;;;;;;7.33;7.00;;;;;24.57;49.46;101540.65;110593;1259;19526;-53
2022/08/06 10:33:29;;;;;;;;;6.67;6.00;;;;;24.59;49.32;101536.34;110606;1258;18688;-54
2022/08/06 10:35:57;;;;;;;;;7.33;7.33;;;;;24.57;49.35;101536.79;110433;1260;18903;-55
2022/08/06 10:38:24;;;;;;;;;7.67;7.00;;;;;24.56;49.27;101534.32;110810;1258;19500;-53
2022/08/06 10:40:51;;;;;;;;;6.00;6.00;;;;;24.55;49.19;101531.86;110832;1258;18403;-56
2022/08/06 10:43:18;;;;;;;;;7.00;7.00;;;;;24.57;49.00;101531.92;110579;1259;18776;-54
2022/08/06 10:45:46;;;;;;;;;8.00;6.67;;;;;24.55;48.92;101529.55;110585;1258;19646;-52
2022/08/06 10:48:13;;;;;;;;;6.00;6.00;;;;;24.50;48.26;101529.16;110768;1258;18438;-52
2022/08/06 10:50:41;;;;;;;;;7.00;6.00;;;;;24.46;47.84;101521.30;110785;1258;19996;-56
2022/08/06 10:53:08;;;;;;;;;7.00;7.00;;;;;24.49;47.71;101521.12;110785;1258;19880;-53
2022/08/06 10:55:36;;;;;;;;;6.67;6.67;;;;;24.54;47.49;101522.00;110751;1259;22236;-55
2022/08/06 10:58:03;;;;;;;;;6.00;6.00;;;;;24.58;47.52;101514.70;110742;1258;18735;-54
2022/08/06 11:00:30;;;;;;;;;6.00;6.00;;;;;24.56;47.61;101516.51;110754;1258;19463;-57
2022/08/06 11:02:58;;;;;;;;;7.00;7.00;;;;;24.60;47.79;101513.14;110790;1258;18728;-52
2022/08/06 11:05:25;;;;;;;;;7.67;7.00;;;;;24.62;47.99;101518.02;110427;1260;18771;-56
2022/08/06 11:07:53;;;;;;;;;8.00;7.00;;;;;24.58;47.82;101517.06;110512;1258;20093;-55
2022/08/06 11:10:21;;;;;;;;;6.00;6.00;;;;;24.57;47.98;101512.87;110699;1258;22182;-56
2022/08/06 11:12:49;;;;;;;;;7.00;6.00;;;;;24.53;47.76;101514.06;110637;1258;18635;-56
2022/08/06 11:15:16;;;;;;;;;6.00;6.00;;;;;24.50;47.74;101517.34;110680;1258;19508;-51
2022/08/06 11:17:44;;;;;;;;;4.00;4.00;;;;;24.41;48.23;101524.92;110649;1258;18576;-55
2022/08/06 11:20:11;;;;;;;;;6.00;6.00;;;;;24.20;47.86;101525.66;110724;1258;20613;-54
2022/08/06 11:22:38;;;;;;;;;8.50;8.50;;;;;24.00;47.89;101525.41;110690;1258;19524;-55
2022/08/06 11:25:06;;;;;;;;;11.67;10.67;;;;;23.97;48.36;101528.63;110744;1258;21048;-54
2022/08/06 11:27:33;;;;;;;;;7.67;7.67;;;;;24.03;48.10;101525.21;110658;1258;18974;-55
2022/08/06 11:30:00;;;;;;;;;7.33;7.33;;;;;24.18;47.76;101521.56;110732;1258;19561;-53
2022/08/06 11:32:28;;;;;;;;;7.00;7.00;;;;;24.37;47.35;101519.83;110509;1259;18542;-52
2022/08/06 11:34:56;;;;;;;;;8.00;8.00;;;;;24.49;47.43;101514.83;110754;1259;18772;-54
2022/08/06 11:37:23;;;;;;;;;7.00;7.00;;;;;24.62;47.21;101513.27;110721;1258;19520;-56
2022/08/06 11:39:51;;;;;;;;;7.00;7.00;;;;;24.73;47.00;101517.66;110538;1258;19311;-56
2022/08/06 11:42:19;;;;;;;;;8.00;7.00;;;;;24.64;46.26;101517.12;110616;1258;20006;-57
2022/08/06 11:44:46;;;;;;;;;14.00;13.00;;;;;24.52;46.01;101516.73;110346;1259;21968;-56
2022/08/06 11:47:16;;;;;;;;;13.00;11.00;;;;;24.59;46.34;101512.95;110558;1258;18465;-54
2022/08/06 11:49:43;;;;;;;;;15.00;14.33;;;;;24.75;46.11;101510.45;110706;1258;23018;-57
2022/08/06 11:52:10;;;;;;;;;17.67;14.67;;;;;24.83;45.72;101505.47;110692;1258;19556;-55
2022/08/06 11:54:38;;;;;;;;;9.00;9.00;;;;;24.79;45.16;101503.25;110378;1260;21478;-57
2022/08/06 11:57:06;;;;;;;;;12.00;9.00;;;;;24.69;44.92;101505.82;110720;1258;18748;-56
2022/08/06 11:59:33;;;;;;;;;12.00;11.00;;;;;24.64;44.10;101507.94;110727;1258;22665;-54
2022/08/06 12:02:01;;;;;;;;;7.00;7.00;;;;;24.59;43.15;101506.40;110657;1258;22786;-56
2022/08/06 12:04:29;;;;;;;;;6.00;6.00;;;;;24.70;43.24;101502.82;110354;1260;18897;-57
2022/08/06 12:06:57;;;;;;;;;6.00;6.00;;;;;24.73;42.71;101500.50;110723;1258;21906;-54
2022/08/06 12:09:24;;;;;;;;;4.00;4.00;;;;;24.69;42.66;101501.14;110761;1258;18392;-54
2022/08/06 12:11:52;;;;;;;;;7.67;7.00;;;;;24.71;42.57;101501.30;110792;1258;21836;-54
2022/08/06 12:14:19;;;;;;;;;5.00;5.00;;;;;24.75;42.26;101506.81;110795;1258;19537;-55
2022/08/06 12:16:47;;;;;;;;;6.67;6.67;;;;;24.86;41.95;101505.55;110762;1259;22281;-57
2022/08/06 12:19:14;;;;;;;;;6.00;6.00;;;;;24.90;41.79;101510.16;110750;1258;20114;-54
2022/08/06 12:21:43;;;;;;;;;6.00;6.00;;;;;24.87;41.77;101509.74;110819;1258;21841;-57
2022/08/06 12:24:10;;;;;;;;;7.00;7.00;;;;;24.81;41.95;101509.88;110433;1260;18405;-56
2022/08/06 12:26:37;;;;;;;;;6.33;6.00;;;;;24.88;42.11;101508.55;110442;1260;18698;-57
2022/08/06 12:29:05;;;;;;;;;4.00;4.00;;;;;24.86;41.98;101510.31;110772;1258;19548;-57
2022/08/06 12:31:32;;;;;;;;;6.67;6.67;;;;;24.88;42.00;101508.54;110399;1261;20026;-55
2022/08/06 12:34:00;;;;;;;;;19.00;18.67;;;;;24.81;42.05;101512.18;110540;1258;18909;-55
2022/08/06 12:36:28;;;;;;;;;76.00;58.50;;;;;24.75;42.42;101511.40;110459;1260;22984;-55
2022/08/06 12:38:55;;;;;;;;;95.00;82.50;;;;;24.53;42.65;101515.08;110403;1260;18760;-55
2022/08/06 12:41:23;;;;;;;;;71.00;57.00;;;;;24.52;42.81;101510.09;110724;1258;18849;-55
2022/08/06 12:43:50;;;;;;;;;45.67;39.00;;;;;24.56;42.96;101511.66;110795;1258;20457;-53
2022/08/06 12:46:18;;;;;;;;;21.00;18.50;;;;;24.71;42.98;101511.44;110715;1258;19124;-55
2022/08/06 12:48:46;;;;;;;;;9.67;9.67;;;;;24.84;43.10;101513.98;110646;1258;19143;-53
2022/08/06 12:51:14;;;;;;;;;11.00;11.00;;;;;24.84;43.08;101513.82;110393;1259;20040;-55
2022/08/06 12:53:42;;;;;;;;;9.00;8.00;;;;;24.90;43.24;101511.02;110739;1258;19085;-57
2022/08/06 12:56:09;;;;;;;;;8.00;7.00;;;;;24.91;42.95;101513.05;110683;1258;18818;-56
2022/08/06 12:58:37;;;;;;;;;7.00;7.00;;;;;24.83;42.72;101518.71;110365;1261;19542;-56
2022/08/06 13:01:04;;;;;;;;;6.00;6.00;;;;;24.84;43.01;101520.00;110649;1258;18423;-56
2022/08/06 13:03:31;;;;;;;;;6.00;6.00;;;;;24.95;43.10;101520.69;110677;1258;18760;-55
2022/08/06 13:05:59;;;;;;;;;6.00;4.00;;;;;24.89;43.13;101521.73;110719;1258;22259;-53
2022/08/06 13:08:27;;;;;;;;;6.00;4.67;;;;;24.74;43.39;101527.41;110714;1258;18538;-54
2022/08/06 13:10:54;;;;;;;;;32.50;28.00;;;;;24.63;43.47;101525.59;110437;1260;18866;-53
2022/08/06 13:13:21;;;;;;;;;19.67;18.67;;;;;24.73;43.61;101524.58;110644;1258;22080;-54
2022/08/06 13:15:51;;;;;;;;;12.67;12.33;;;;;24.85;43.88;101525.08;110524;1258;19062;-55
2022/08/06 13:18:19;;;;;;;;;13.67;13.00;;;;;24.97;43.82;101522.75;110693;1258;18790;-54
2022/08/06 13:20:46;;;;;;;;;10.00;10.00;;;;;25.04;43.53;101517.69;110724;1258;19677;-54
2022/08/06 13:23:14;;;;;;;;;11.33;10.33;;;;;25.09;43.38;101522.59;110525;1259;18767;-53
2022/08/06 13:25:43;;;;;;;;;9.67;8.67;;;;;25.20;43.18;101521.80;110756;1258;18964;-59
2022/08/06 13:28:10;;;;;;;;;8.00;8.00;;;;;25.29;43.21;101523.28;110630;1258;19465;-52
2022/08/06 13:30:38;;;;;;;;;11.00;8.00;;;;;25.27;43.11;101525.16;110453;1258;20885;-53
2022/08/06 13:33:05;;;;;;;;;7.00;7.00;;;;;25.22;42.91;101522.84;110394;1258;18768;-53
2022/08/06 13:35:32;;;;;;;;;8.50;8.00;;;;;25.21;42.76;101522.75;110571;1258;19473;-54
2022/08/06 13:38:00;;;;;;;;;6.00;6.00;;;;;25.17;42.54;101531.30;110226;1260;19011;-55
2022/08/06 13:40:28;;;;;;;;;6.00;6.00;;;;;25.16;42.35;101531.31;110613;1258;22236;-55
2022/08/06 13:42:55;;;;;;;;;5.33;4.00;;;;;25.16;42.09;101530.69;110741;1258;19473;-53
2022/08/06 13:45:23;;;;;;;;;6.00;6.00;;;;;25.12;41.75;101535.80;110384;1260;18954;-57
2022/08/06 13:47:52;;;;;;;;;8.00;7.00;;;;;25.12;41.42;101538.02;110785;1258;18890;-54
2022/08/06 13:50:19;;;;;;;;;6.00;6.00;;;;;25.12;41.33;101537.83;110495;1260;19651;-51
2022/08/06 13:52:46;;;;;;;;;7.00;7.00;;;;;25.11;40.98;101534.52;110501;1260;18555;-54
2022/08/06 13:55:14;;;;;;;;;4.00;4.00;;;;;25.08;40.89;101534.67;110764;1258;22762;-54
2022/08/06 13:57:41;;;;;;;;;4.00;4.00;;;;;25.01;40.52;101536.33;110766;1258;20133;-54
2022/08/06 14:00:09;;;;;;;;;7.00;5.33;;;;;24.98;40.38;101534.54;110469;1260;18461;-53
2022/08/06 14:02:36;;;;;;;;;4.00;4.00;;;;;24.99;39.84;101528.77;110761;1257;22114;-52
2022/08/06 14:05:04;;;;;;;;;3.00;3.00;;;;;24.97;39.77;101531.73;110829;1259;19526;-53
2022/08/06 14:07:31;;;;;;;;;6.00;4.00;;;;;24.98;39.48;101532.59;110787;1259;18504;-55
2022/08/06 14:09:59;;;;;;;;;5.00;3.50;;;;;25.05;39.32;101539.04;110452;1260;22322;-54
2022/08/06 14:12:26;;;;;;;;;5.00;4.00;;;;;25.10;39.20;101537.92;110481;1260;19560;-52
2022/08/06 14:14:53;;;;;;;;;4.00;4.00;;;;;25.09;39.14;101534.88;110446;1261;20077;-57
2022/08/06 14:17:21;;;;;;;;;4.00;3.33;;;;;25.09;39.01;101536.21;110800;1258;18807;-56
2022/08/06 14:19:49;;;;;;;;;4.00;4.00;;;;;25.04;38.93;101540.26;110746;1258;19719;-55
2022/08/06 14:22:16;;;;;;;;;4.00;4.00;;;;;24.98;38.89;101535.29;110603;1259;18398;-53
2022/08/06 14:24:43;;;;;;;;;4.00;4.00;;;;;24.91;38.62;101535.95;110746;1258;23248;-55
2022/08/06 14:27:11;;;;;;;;;3.00;3.00;;;;;24.88;38.73;101537.44;110350;1260;19350;-52
2022/08/06 14:29:38;;;;;;;;;3.00;3.00;;;;;24.92;38.59;101534.26;110806;1258;20158;-54
2022/08/06 14:32:07;;;;;;;;;3.00;3.00;;;;;24.98;38.79;101535.64;110493;1260;18797;-55
2022/08/06 14:34:35;;;;;;;;;4.00;3.00;;;;;25.02;38.56;101536.38;110812;1258;20267;-54
2022/08/06 14:37:02;;;;;;;;;4.00;3.67;;;;;25.03;38.22;101533.40;110378;1260;19634;-59
2022/08/06 14:39:30;;;;;;;;;2.67;2.67;;;;;25.00;37.90;101535.61;110464;1260;19027;-52
2022/08/06 14:44:59;;;;;;;;;6.00;4.00;;;;;25.02;37.81;101538.84;110682;1258;18370;-53
2022/08/06 14:47:27;;;;;;;;;5.33;3.67;;;;;25.03;37.86;101536.90;110713;1258;19255;-52
2022/08/06 14:49:54;;;;;;;;;5.00;5.00;;;;;25.04;37.93;101535.87;110723;1258;19512;-54
2022/08/06 14:52:22;;;;;;;;;7.00;6.67;;;;;25.06;38.17;101540.55;110747;1258;19879;-54
2022/08/06 14:54:50;;;;;;;;;6.00;6.00;;;;;25.05;37.71;101541.43;110716;1258;20475;-60
2022/08/06 14:57:17;;;;;;;;;6.00;6.00;;;;;25.05;37.68;101542.82;110541;1258;19594;-51
2022/08/06 14:59:45;;;;;;;;;3.67;3.33;;;;;25.11;37.57;101544.39;111151;1258;18671;-51
2022/08/06 15:02:12;;;;;;;;;6.00;5.33;;;;;25.09;37.34;101548.70;110317;1260;23049;-53